Thunder radar more information blitzortung!


Radar de pluja more information rain snow radar


Visita la nostra xarxa de llocs de meteo:

Template documentation
and downloads

And another site



No particular awareness of the weather is required.    There are no Weather-warnings

Pagina Historial Weather Underground text

Diari Resum May 26, 2017 Unitats:  Tant    Imperial   Mètric
« Previous Dia
SegĂźent Dia »
Diari Setmana Mensual Anual Personalitzada
  Maxima: Minima: Media:
Temperatura: TemperatureC °F /  -17.8 °C 15.3 °F /  -9.3 °C 22.1 °F /  -5.5 °C
Punt de rosada: DewpointC °F /  -17.8 °C 8.1 °F /  -13.3 °C 12.8 °F /  -10.7 °C
Humitat: Humidity % 42 % 57 %
Wind Speed: WindSpeedKMH mph /  0 km/h - 8.3 mph /  13.4 km/h
RĂ fegues de vent: WindSpeedGustKMH mph /  0 km/h - -
Vent:- - East
Pression baro: PressurehPa in /  0 hPa 1011.7 in /  34256.2 hPa -
Precipitacions: 0.0 in /  0 mm    
Historical Graphs
 
 
Dades de taula per May 26, 2017
Temps Temperatura Punt de rosada Pression baro Vent Wind Speed RĂ fegues de vent Humitat Rainfall Rate (Hourly)
TemperatureC °F /  -17.8 °C DewpointC °F /  -17.8 °C PressurehPa in /  0 hPa Calm     Humidity % HourlyPrecipMM in /  0 mm
00:00 16.3 °F /  -8.7 °C 8.8 °F /  -12.9 °C 1013.8 in /  34327.3 hPa Calm   3.2 mph /  5.1 km/h 61 % 0.0 in /  0 mm
00:03 21.6 °F /  -5.8 °C 8.1 °F /  -13.3 °C 1011.7 in /  34256.2 hPa SW 1.9 mph /  3.1 km/h 1.9 mph /  3.1 km/h 42 % 0.0 in /  0 mm
00:08 21.5 °F /  -5.8 °C 8.1 °F /  -13.3 °C 1011.7 in /  34256.2 hPa WSW 2.3 mph /  3.7 km/h 2.3 mph /  3.7 km/h 42 % 0.0 in /  0 mm
00:10 16.2 °F /  -8.8 °C 8.4 °F /  -13.1 °C 1013.8 in /  34327.3 hPa Calm     60 % 0.0 in /  0 mm
00:13 21.4 °F /  -5.9 °C 8.3 °F /  -13.2 °C 1011.7 in /  34256.2 hPa WSW 1.9 mph /  3.1 km/h 1.9 mph /  3.1 km/h 43 % 0.0 in /  0 mm
00:20 16.2 °F /  -8.8 °C 8.4 °F /  -13.1 °C 1013.8 in /  34327.3 hPa Calm     60 % 0.0 in /  0 mm
00:30 16.4 °F /  -8.7 °C 9.1 °F /  -12.7 °C 1012.8 in /  34293.4 hPa WSW 1.6 mph /  2.6 km/h 3.2 mph /  5.1 km/h 62 % 0.0 in /  0 mm
00:40 16.3 °F /  -8.7 °C 8.8 °F /  -12.9 °C 1012.8 in /  34293.4 hPa East 1.6 mph /  2.6 km/h 1.6 mph /  2.6 km/h 61 % 0.0 in /  0 mm
00:50 16.2 °F /  -8.8 °C 8.7 °F /  -12.9 °C 1012.8 in /  34293.4 hPa ENE 1.6 mph /  2.6 km/h 3.2 mph /  5.1 km/h 61 % 0.0 in /  0 mm
01:00 16.2 °F /  -8.8 °C 8.7 °F /  -12.9 °C 1013.8 in /  34327.3 hPa Calm     61 % 0.0 in /  0 mm
01:10 16.0 °F /  -8.9 °C 8.5 °F /  -13.1 °C 1013.8 in /  34327.3 hPa Calm     61 % 0.0 in /  0 mm
01:20 15.9 °F /  -8.9 °C 8.6 °F /  -13 °C 1013.8 in /  34327.3 hPa Calm     62 % 0.0 in /  0 mm
01:30 15.6 °F /  -9.1 °C 8.3 °F /  -13.2 °C 1012.8 in /  34293.4 hPa WNW 1.6 mph /  2.6 km/h 1.6 mph /  2.6 km/h 62 % 0.0 in /  0 mm
01:40 15.5 °F /  -9.2 °C 8.2 °F /  -13.2 °C 1012.8 in /  34293.4 hPa WSW 1.6 mph /  2.6 km/h 1.6 mph /  2.6 km/h 62 % 0.0 in /  0 mm
01:50 15.4 °F /  -9.2 °C 8.2 °F /  -13.2 °C 1012.8 in /  34293.4 hPa SW 1.6 mph /  2.6 km/h 3.2 mph /  5.1 km/h 62 % 0.0 in /  0 mm
02:00 15.3 °F /  -9.3 °C 8.1 °F /  -13.3 °C 1013.8 in /  34327.3 hPa Calm   3.2 mph /  5.1 km/h 62 % 0.0 in /  0 mm
02:10 15.6 °F /  -9.1 °C 8.3 °F /  -13.2 °C 1013.8 in /  34327.3 hPa Calm     62 % 0.0 in /  0 mm
02:20 16.0 °F /  -8.9 °C 8.5 °F /  -13.1 °C 1013.8 in /  34327.3 hPa Calm     61 % 0.0 in /  0 mm
02:30 16.5 °F /  -8.6 °C 8.9 °F /  -12.8 °C 1012.8 in /  34293.4 hPa ESE 1.6 mph /  2.6 km/h 3.2 mph /  5.1 km/h 61 % 0.0 in /  0 mm
02:40 17.1 °F /  -8.3 °C 9.0 °F /  -12.8 °C 1013.8 in /  34327.3 hPa Calm   1.6 mph /  2.6 km/h 59 % 0.0 in /  0 mm
02:50 17.6 °F /  -8 °C 9.5 °F /  -12.5 °C 1013.8 in /  34327.3 hPa NE 1.6 mph /  2.6 km/h 3.2 mph /  5.1 km/h 59 % 0.0 in /  0 mm
03:00 17.8 °F /  -7.9 °C 9.2 °F /  -12.7 °C 1014.8 in /  34361.1 hPa NE 1.6 mph /  2.6 km/h 1.6 mph /  2.6 km/h 57 % 0.0 in /  0 mm
03:10 18.2 °F /  -7.7 °C 9.6 °F /  -12.4 °C 1013.8 in /  34327.3 hPa NNE 3.2 mph /  5.1 km/h 4.8 mph /  7.7 km/h 57 % 0.0 in /  0 mm
03:20 18.5 °F /  -7.5 °C 9.6 °F /  -12.4 °C 1013.8 in /  34327.3 hPa NE 3.2 mph /  5.1 km/h 4.8 mph /  7.7 km/h 56 % 0.0 in /  0 mm
03:30 19.0 °F /  -7.2 °C 9.5 °F /  -12.5 °C 1014.8 in /  34361.1 hPa ENE 1.6 mph /  2.6 km/h 4.8 mph /  7.7 km/h 54 % 0.0 in /  0 mm
03:40 19.9 °F /  -6.7 °C 10.3 °F /  -12.1 °C 1013.8 in /  34327.3 hPa Calm   3.2 mph /  5.1 km/h 54 % 0.0 in /  0 mm
03:50 20.0 °F /  -6.7 °C 10.4 °F /  -12 °C 1013.8 in /  34327.3 hPa ENE 3.2 mph /  5.1 km/h 4.8 mph /  7.7 km/h 54 % 0.0 in /  0 mm
04:00 20.5 °F /  -6.4 °C 10.6 °F /  -11.9 °C 1014.8 in /  34361.1 hPa ENE 3.2 mph /  5.1 km/h 4.8 mph /  7.7 km/h 53 % 0.0 in /  0 mm
04:10 20.8 °F /  -6.2 °C 10.6 °F /  -11.9 °C 1014.8 in /  34361.1 hPa ENE 1.6 mph /  2.6 km/h 6.4 mph /  10.3 km/h 52 % 0.0 in /  0 mm
04:20 21.0 °F /  -6.1 °C 10.8 °F /  -11.8 °C 1014.8 in /  34361.1 hPa NE 3.2 mph /  5.1 km/h 4.8 mph /  7.7 km/h 52 % 0.0 in /  0 mm
04:30 21.4 °F /  -5.9 °C 10.8 °F /  -11.8 °C 1014.8 in /  34361.1 hPa NE 3.2 mph /  5.1 km/h 6.4 mph /  10.3 km/h 51 % 0.0 in /  0 mm
04:40 21.7 °F /  -5.7 °C 10.8 °F /  -11.8 °C 1014.8 in /  34361.1 hPa ENE 3.2 mph /  5.1 km/h 4.8 mph /  7.7 km/h 50 % 0.0 in /  0 mm
04:50 22.6 °F /  -5.2 °C 11.7 °F /  -11.3 °C 1014.8 in /  34361.1 hPa Calm   3.2 mph /  5.1 km/h 50 % 0.0 in /  0 mm
09:59 22.7 °F /  -5.2 °C 11.4 °F /  -11.4 °C 1014.8 in /  34361.1 hPa ESE 5.6 mph /  9 km/h 5.6 mph /  9 km/h 49 % 0.0 in /  0 mm
10:04 22.7 °F /  -5.2 °C 11.4 °F /  -11.4 °C 1014.8 in /  34361.1 hPa SE 5.6 mph /  9 km/h 5.6 mph /  9 km/h 49 % 0.0 in /  0 mm
10:09 22.8 °F /  -5.1 °C 11.5 °F /  -11.4 °C 1014.8 in /  34361.1 hPa NE 9.3 mph /  15 km/h 9.3 mph /  15 km/h 49 % 0.0 in /  0 mm
10:14 23.1 °F /  -4.9 °C 11.5 °F /  -11.4 °C 1014.8 in /  34361.1 hPa NNE 9.3 mph /  15 km/h 9.3 mph /  15 km/h 48 % 0.0 in /  0 mm
10:19 23.2 °F /  -4.9 °C 11.9 °F /  -11.2 °C 1014.8 in /  34361.1 hPa East 5.6 mph /  9 km/h 5.6 mph /  9 km/h 49 % 0.0 in /  0 mm
10:24 23.3 °F /  -4.8 °C 12.0 °F /  -11.1 °C 1014.8 in /  34361.1 hPa NNE 9.3 mph /  15 km/h 9.3 mph /  15 km/h 49 % 0.0 in /  0 mm
10:29 23.5 °F /  -4.7 °C 12.2 °F /  -11 °C 1014.8 in /  34361.1 hPa ENE 9.3 mph /  15 km/h 9.3 mph /  15 km/h 49 % 0.0 in /  0 mm
10:34 23.7 °F /  -4.6 °C 12.3 °F /  -10.9 °C 1014.8 in /  34361.1 hPa ESE 5.6 mph /  9 km/h 5.6 mph /  9 km/h 49 % 0.0 in /  0 mm
10:39 24.2 °F /  -4.3 °C 12.8 °F /  -10.7 °C 1013.8 in /  34327.3 hPa ESE 9.3 mph /  15 km/h 9.3 mph /  15 km/h 49 % 0.0 in /  0 mm
10:44 24.6 °F /  -4.1 °C 13.2 °F /  -10.4 °C 1013.8 in /  34327.3 hPa ENE 5.6 mph /  9 km/h 5.6 mph /  9 km/h 49 % 0.0 in /  0 mm
10:45 24.6 °F /  -4.1 °C 13.2 °F /  -10.4 °C 1013.8 in /  34327.3 hPa ENE 3.2 mph /  5.1 km/h 8.0 mph /  12.9 km/h 49 % 0.0 in /  0 mm
10:50 24.5 °F /  -4.2 °C 13.1 °F /  -10.5 °C 1013.8 in /  34327.3 hPa East 3.2 mph /  5.1 km/h 11.3 mph /  18.2 km/h 49 % 0.0 in /  0 mm
10:55 24.7 °F /  -4.1 °C 12.9 °F /  -10.6 °C 1014.8 in /  34361.1 hPa ESE 8.0 mph /  12.9 km/h 11.3 mph /  18.2 km/h 48 % 0.0 in /  0 mm
11:00 24.9 °F /  -3.9 °C 13.1 °F /  -10.5 °C 1014.8 in /  34361.1 hPa ENE 4.8 mph /  7.7 km/h 6.4 mph /  10.3 km/h 48 % 0.0 in /  0 mm
11:05 24.9 °F /  -3.9 °C 12.8 °F /  -10.7 °C 1014.8 in /  34361.1 hPa ESE 7.9 mph /  12.7 km/h 7.9 mph /  12.7 km/h 47 % 0.0 in /  0 mm
11:10 25.5 °F /  -3.6 °C 13.3 °F /  -10.4 °C 1013.8 in /  34327.3 hPa East 9.0 mph /  14.5 km/h 9.0 mph /  14.5 km/h 47 % 0.0 in /  0 mm
11:15 25.0 °F /  -3.9 °C 12.6 °F /  -10.8 °C 1013.8 in /  34327.3 hPa ESE 9.7 mph /  15.6 km/h 12.9 mph /  20.8 km/h 46 % 0.0 in /  0 mm
11:20 25.5 °F /  -3.6 °C 13.1 °F /  -10.5 °C 1013.8 in /  34327.3 hPa East 4.8 mph /  7.7 km/h 9.7 mph /  15.6 km/h 46 % 0.0 in /  0 mm
11:25 25.1 °F /  -3.8 °C 12.7 °F /  -10.7 °C 1013.8 in /  34327.3 hPa ESE 9.7 mph /  15.6 km/h 11.3 mph /  18.2 km/h 46 % 0.0 in /  0 mm
11:30 25.8 °F /  -3.4 °C 13.3 °F /  -10.4 °C 1013.8 in /  34327.3 hPa ESE 9.3 mph /  15 km/h 9.3 mph /  15 km/h 46 % 0.0 in /  0 mm
11:35 26.6 °F /  -3 °C 13.7 °F /  -10.2 °C 1013.8 in /  34327.3 hPa SSE 7.4 mph /  11.9 km/h 7.4 mph /  11.9 km/h 45 % 0.0 in /  0 mm
11:40 26.7 °F /  -2.9 °C 13.8 °F /  -10.1 °C 1013.8 in /  34327.3 hPa ESE 10.3 mph /  16.6 km/h 10.3 mph /  16.6 km/h 45 % 0.0 in /  0 mm
11:45 26.2 °F /  -3.2 °C 13.0 °F /  -10.6 °C 1013.8 in /  34327.3 hPa East 7.4 mph /  11.9 km/h 7.4 mph /  11.9 km/h 44 % 0.0 in /  0 mm
11:50 26.3 °F /  -3.2 °C 12.7 °F /  -10.7 °C 1013.8 in /  34327.3 hPa ENE 9.3 mph /  15 km/h 9.3 mph /  15 km/h 43 % 0.0 in /  0 mm
11:55 26.0 °F /  -3.3 °C 12.8 °F /  -10.7 °C 1013.8 in /  34327.3 hPa ESE 9.3 mph /  15 km/h 9.3 mph /  15 km/h 44 % 0.0 in /  0 mm
12:00 26.5 °F /  -3.1 °C 13.3 °F /  -10.4 °C 1013.8 in /  34327.3 hPa NNE 9.0 mph /  14.5 km/h 9.0 mph /  14.5 km/h 44 % 0.0 in /  0 mm
12:05 26.9 °F /  -2.8 °C 13.6 °F /  -10.2 °C 1013.8 in /  34327.3 hPa ESE 7.4 mph /  11.9 km/h 7.4 mph /  11.9 km/h 44 % 0.0 in /  0 mm
12:10 26.9 °F /  -2.8 °C 13.6 °F /  -10.2 °C 1013.8 in /  34327.3 hPa North 9.0 mph /  14.5 km/h 9.0 mph /  14.5 km/h 44 % 0.0 in /  0 mm
12:15 26.8 °F /  -2.9 °C 13.5 °F /  -10.3 °C 1013.8 in /  34327.3 hPa ESE 13.0 mph /  20.9 km/h 13.0 mph /  20.9 km/h 44 % 0.0 in /  0 mm
12:20 26.9 °F /  -2.8 °C 13.6 °F /  -10.2 °C 1013.8 in /  34327.3 hPa East 9.3 mph /  15 km/h 9.3 mph /  15 km/h 44 % 0.0 in /  0 mm
12:25 27.3 °F /  -2.6 °C 13.6 °F /  -10.2 °C 1013.8 in /  34327.3 hPa ESE 13.0 mph /  20.9 km/h 13.0 mph /  20.9 km/h 43 % 0.0 in /  0 mm
12:30 27.5 °F /  -2.5 °C 13.4 °F /  -10.3 °C 1013.8 in /  34327.3 hPa NE 9.3 mph /  15 km/h 9.3 mph /  15 km/h 42 % 0.0 in /  0 mm
12:35 27.1 °F /  -2.7 °C 13.1 °F /  -10.5 °C 1013.8 in /  34327.3 hPa ENE 9.5 mph /  15.3 km/h 9.5 mph /  15.3 km/h 42 % 0.0 in /  0 mm
12:40 26.9 °F /  -2.8 °C 13.3 °F /  -10.4 °C 1013.8 in /  34327.3 hPa North 14.8 mph /  23.8 km/h 14.8 mph /  23.8 km/h 43 % 0.0 in /  0 mm
12:45 27.1 °F /  -2.7 °C 13.1 °F /  -10.5 °C 1013.8 in /  34327.3 hPa ESE 11.1 mph /  17.9 km/h 11.1 mph /  17.9 km/h 42 % 0.0 in /  0 mm
12:50 27.1 °F /  -2.7 °C 13.1 °F /  -10.5 °C 1013.8 in /  34327.3 hPa ESE 13.0 mph /  20.9 km/h 13.0 mph /  20.9 km/h 42 % 0.0 in /  0 mm
12:55 27.0 °F /  -2.8 °C 13.0 °F /  -10.6 °C 1013.8 in /  34327.3 hPa East 14.8 mph /  23.8 km/h 14.8 mph /  23.8 km/h 42 % 0.0 in /  0 mm
13:00 27.0 °F /  -2.8 °C 13.0 °F /  -10.6 °C 1013.8 in /  34327.3 hPa ENE 14.8 mph /  23.8 km/h 14.8 mph /  23.8 km/h 42 % 0.0 in /  0 mm
13:05 26.7 °F /  -2.9 °C 13.1 °F /  -10.5 °C 1013.8 in /  34327.3 hPa ENE 13.0 mph /  20.9 km/h 13.0 mph /  20.9 km/h 43 % 0.0 in /  0 mm
13:10 27.0 °F /  -2.8 °C 13.3 °F /  -10.4 °C 1012.8 in /  34293.4 hPa East 7.4 mph /  11.9 km/h 7.4 mph /  11.9 km/h 43 % 0.0 in /  0 mm
13:15 26.8 °F /  -2.9 °C 13.5 °F /  -10.3 °C 1012.8 in /  34293.4 hPa ESE 16.7 mph /  26.9 km/h 16.7 mph /  26.9 km/h 44 % 0.0 in /  0 mm
13:20 26.7 °F /  -2.9 °C 13.4 °F /  -10.3 °C 1012.8 in /  34293.4 hPa ESE 18.5 mph /  29.8 km/h 18.5 mph /  29.8 km/h 44 % 0.0 in /  0 mm
13:25 27.2 °F /  -2.7 °C 13.6 °F /  -10.2 °C 1013.8 in /  34327.3 hPa ESE 16.7 mph /  26.9 km/h 16.7 mph /  26.9 km/h 43 % 0.0 in /  0 mm
13:30 26.7 °F /  -2.9 °C 13.4 °F /  -10.3 °C 1013.8 in /  34327.3 hPa NE 16.7 mph /  26.9 km/h 16.7 mph /  26.9 km/h 44 % 0.0 in /  0 mm
13:35 27.1 °F /  -2.7 °C 13.4 °F /  -10.3 °C 1013.8 in /  34327.3 hPa ENE 13.0 mph /  20.9 km/h 13.0 mph /  20.9 km/h 43 % 0.0 in /  0 mm
13:40 26.9 °F /  -2.8 °C 13.6 °F /  -10.2 °C 1013.8 in /  34327.3 hPa ESE 11.1 mph /  17.9 km/h 11.1 mph /  17.9 km/h 44 % 0.0 in /  0 mm
13:45 26.9 °F /  -2.8 °C 13.6 °F /  -10.2 °C 1013.8 in /  34327.3 hPa East 16.7 mph /  26.9 km/h 16.7 mph /  26.9 km/h 44 % 0.0 in /  0 mm
13:50 26.8 °F /  -2.9 °C 13.5 °F /  -10.3 °C 1013.8 in /  34327.3 hPa ESE 17.2 mph /  27.7 km/h 17.2 mph /  27.7 km/h 44 % 0.0 in /  0 mm
13:55 26.9 °F /  -2.8 °C 13.6 °F /  -10.2 °C 1013.8 in /  34327.3 hPa ESE 13.0 mph /  20.9 km/h 13.0 mph /  20.9 km/h 44 % 0.0 in /  0 mm
14:00 26.7 °F /  -2.9 °C 13.4 °F /  -10.3 °C 1013.8 in /  34327.3 hPa ESE 16.7 mph /  26.9 km/h 16.7 mph /  26.9 km/h 44 % 0.0 in /  0 mm
14:05 26.6 °F /  -3 °C 13.3 °F /  -10.4 °C 1013.8 in /  34327.3 hPa ESE 15.1 mph /  24.3 km/h 15.1 mph /  24.3 km/h 44 % 0.0 in /  0 mm
14:10 26.6 °F /  -3 °C 13.7 °F /  -10.2 °C 1013.8 in /  34327.3 hPa ENE 16.7 mph /  26.9 km/h 16.7 mph /  26.9 km/h 45 % 0.0 in /  0 mm
14:15 26.5 °F /  -3.1 °C 13.6 °F /  -10.2 °C 1013.8 in /  34327.3 hPa ENE 20.4 mph /  32.8 km/h 20.4 mph /  32.8 km/h 45 % 0.0 in /  0 mm
14:20 26.7 °F /  -2.9 °C 13.8 °F /  -10.1 °C 1013.8 in /  34327.3 hPa ESE 13.7 mph /  22 km/h 13.7 mph /  22 km/h 45 % 0.0 in /  0 mm
14:25 26.8 °F /  -2.9 °C 14.2 °F /  -9.9 °C 1014.8 in /  34361.1 hPa ENE 14.8 mph /  23.8 km/h 14.8 mph /  23.8 km/h 46 % 0.0 in /  0 mm
14:30 26.2 °F /  -3.2 °C 13.7 °F /  -10.2 °C 1014.8 in /  34361.1 hPa ESE 16.7 mph /  26.9 km/h 16.7 mph /  26.9 km/h 46 % 0.0 in /  0 mm
14:35 26.6 °F /  -3 °C 14.1 °F /  -9.9 °C 1014.8 in /  34361.1 hPa ENE 16.7 mph /  26.9 km/h 16.7 mph /  26.9 km/h 46 % 0.0 in /  0 mm
14:40 26.1 °F /  -3.3 °C 13.6 °F /  -10.2 °C 1013.8 in /  34327.3 hPa East 18.3 mph /  29.5 km/h 18.3 mph /  29.5 km/h 46 % 0.0 in /  0 mm
14:45 26.3 °F /  -3.2 °C 14.1 °F /  -9.9 °C 1013.8 in /  34327.3 hPa ESE 14.8 mph /  23.8 km/h 14.8 mph /  23.8 km/h 47 % 0.0 in /  0 mm
14:50 26.1 °F /  -3.3 °C 13.9 °F /  -10.1 °C 1013.8 in /  34327.3 hPa ENE 14.8 mph /  23.8 km/h 14.8 mph /  23.8 km/h 47 % 0.0 in /  0 mm
14:51 26.1 °F /  -3.3 °C 13.9 °F /  -10.1 °C 1013.8 in /  34327.3 hPa SSE 11.1 mph /  17.9 km/h 11.1 mph /  17.9 km/h 47 % 0.0 in /  0 mm
14:56 26.1 °F /  -3.3 °C 13.9 °F /  -10.1 °C 1013.8 in /  34327.3 hPa East 13.0 mph /  20.9 km/h 13.0 mph /  20.9 km/h 47 % 0.0 in /  0 mm
15:01 26.2 °F /  -3.2 °C 14.0 °F /  -10 °C 1013.8 in /  34327.3 hPa ESE 16.7 mph /  26.9 km/h 16.7 mph /  26.9 km/h 47 % 0.0 in /  0 mm
15:06 26.0 °F /  -3.3 °C 13.8 °F /  -10.1 °C 1013.8 in /  34327.3 hPa ESE 16.7 mph /  26.9 km/h 16.7 mph /  26.9 km/h 47 % 0.0 in /  0 mm
15:11 25.8 °F /  -3.4 °C 13.9 °F /  -10.1 °C 1013.8 in /  34327.3 hPa ENE 11.1 mph /  17.9 km/h 11.1 mph /  17.9 km/h 48 % 0.0 in /  0 mm
15:16 25.7 °F /  -3.5 °C 13.6 °F /  -10.2 °C 1013.8 in /  34327.3 hPa East 18.5 mph /  29.8 km/h 18.5 mph /  29.8 km/h 47 % 0.0 in /  0 mm
15:21 25.7 °F /  -3.5 °C 13.9 °F /  -10.1 °C 1013.8 in /  34327.3 hPa SE 16.7 mph /  26.9 km/h 16.7 mph /  26.9 km/h 48 % 0.0 in /  0 mm
15:26 25.6 °F /  -3.6 °C 13.8 °F /  -10.1 °C 1013.8 in /  34327.3 hPa NNE 16.7 mph /  26.9 km/h 16.7 mph /  26.9 km/h 48 % 0.0 in /  0 mm
15:31 25.4 °F /  -3.7 °C 13.6 °F /  -10.2 °C 1013.8 in /  34327.3 hPa SE 16.7 mph /  26.9 km/h 16.7 mph /  26.9 km/h 48 % 0.0 in /  0 mm
15:36 25.7 °F /  -3.5 °C 13.9 °F /  -10.1 °C 1013.8 in /  34327.3 hPa ESE 14.8 mph /  23.8 km/h 14.8 mph /  23.8 km/h 48 % 0.0 in /  0 mm
15:41 25.4 °F /  -3.7 °C 13.6 °F /  -10.2 °C 1013.8 in /  34327.3 hPa ESE 11.1 mph /  17.9 km/h 11.1 mph /  17.9 km/h 48 % 0.0 in /  0 mm
15:46 25.1 °F /  -3.8 °C 13.3 °F /  -10.4 °C 1013.8 in /  34327.3 hPa East 16.7 mph /  26.9 km/h 16.7 mph /  26.9 km/h 48 % 0.0 in /  0 mm
15:51 25.3 °F /  -3.7 °C 13.5 °F /  -10.3 °C 1013.8 in /  34327.3 hPa ENE 14.8 mph /  23.8 km/h 14.8 mph /  23.8 km/h 48 % 0.0 in /  0 mm
15:56 25.9 °F /  -3.4 °C 14.1 °F /  -9.9 °C 1013.8 in /  34327.3 hPa East 9.3 mph /  15 km/h 9.3 mph /  15 km/h 48 % 0.0 in /  0 mm
16:01 25.6 °F /  -3.6 °C 13.8 °F /  -10.1 °C 1013.8 in /  34327.3 hPa East 20.4 mph /  32.8 km/h 20.4 mph /  32.8 km/h 48 % 0.0 in /  0 mm
16:06 25.6 °F /  -3.6 °C 13.8 °F /  -10.1 °C 1013.8 in /  34327.3 hPa SSE 13.7 mph /  22 km/h 13.7 mph /  22 km/h 48 % 0.0 in /  0 mm
16:11 25.5 °F /  -3.6 °C 14.0 °F /  -10 °C 1013.8 in /  34327.3 hPa NE 14.0 mph /  22.5 km/h 14.0 mph /  22.5 km/h 49 % 0.0 in /  0 mm
16:16 25.7 °F /  -3.5 °C 14.2 °F /  -9.9 °C 1013.8 in /  34327.3 hPa ESE 11.1 mph /  17.9 km/h 11.1 mph /  17.9 km/h 49 % 0.0 in /  0 mm
16:21 25.5 °F /  -3.6 °C 14.0 °F /  -10 °C 1013.8 in /  34327.3 hPa ESE 14.8 mph /  23.8 km/h 14.8 mph /  23.8 km/h 49 % 0.0 in /  0 mm
16:26 25.5 °F /  -3.6 °C 14.0 °F /  -10 °C 1013.8 in /  34327.3 hPa ENE 16.7 mph /  26.9 km/h 16.7 mph /  26.9 km/h 49 % 0.0 in /  0 mm
16:31 25.4 °F /  -3.7 °C 13.9 °F /  -10.1 °C 1013.8 in /  34327.3 hPa NNW 13.0 mph /  20.9 km/h 13.0 mph /  20.9 km/h 49 % 0.0 in /  0 mm
16:36 25.3 °F /  -3.7 °C 13.8 °F /  -10.1 °C 1013.8 in /  34327.3 hPa SE 11.1 mph /  17.9 km/h 11.1 mph /  17.9 km/h 49 % 0.0 in /  0 mm
16:41 25.1 °F /  -3.8 °C 13.9 °F /  -10.1 °C 1013.8 in /  34327.3 hPa WNW 18.5 mph /  29.8 km/h 18.5 mph /  29.8 km/h 50 % 0.0 in /  0 mm
16:46 24.9 °F /  -3.9 °C 14.1 °F /  -9.9 °C 1013.8 in /  34327.3 hPa ENE 11.1 mph /  17.9 km/h 11.1 mph /  17.9 km/h 51 % 0.0 in /  0 mm
16:51 25.1 °F /  -3.8 °C 13.9 °F /  -10.1 °C 1012.8 in /  34293.4 hPa ENE 14.8 mph /  23.8 km/h 14.8 mph /  23.8 km/h 50 % 0.0 in /  0 mm
16:56 25.2 °F /  -3.8 °C 14.1 °F /  -9.9 °C 1012.8 in /  34293.4 hPa ENE 9.5 mph /  15.3 km/h 9.5 mph /  15.3 km/h 50 % 0.0 in /  0 mm
17:01 25.0 °F /  -3.9 °C 13.8 °F /  -10.1 °C 1012.8 in /  34293.4 hPa ENE 10.3 mph /  16.6 km/h 10.3 mph /  16.6 km/h 50 % 0.0 in /  0 mm
17:06 24.8 °F /  -4 °C 14.0 °F /  -10 °C 1012.8 in /  34293.4 hPa ENE 16.7 mph /  26.9 km/h 16.7 mph /  26.9 km/h 51 % 0.0 in /  0 mm
17:11 24.9 °F /  -3.9 °C 14.1 °F /  -9.9 °C 1012.8 in /  34293.4 hPa SE 9.3 mph /  15 km/h 9.3 mph /  15 km/h 51 % 0.0 in /  0 mm
17:16 25.0 °F /  -3.9 °C 13.8 °F /  -10.1 °C 1012.8 in /  34293.4 hPa East 10.0 mph /  16.1 km/h 10.0 mph /  16.1 km/h 50 % 0.0 in /  0 mm
17:21 24.9 °F /  -3.9 °C 13.8 °F /  -10.1 °C 1012.8 in /  34293.4 hPa NE 11.1 mph /  17.9 km/h 11.1 mph /  17.9 km/h 50 % 0.0 in /  0 mm
17:22 25.0 °F /  -3.9 °C 13.6 °F /  -10.2 °C 1012.8 in /  34293.4 hPa ENE 11.1 mph /  17.9 km/h 11.1 mph /  17.9 km/h 49 % 0.0 in /  0 mm
17:27 25.0 °F /  -3.9 °C 13.6 °F /  -10.2 °C 1012.8 in /  34293.4 hPa NE 14.5 mph /  23.3 km/h 14.5 mph /  23.3 km/h 49 % 0.0 in /  0 mm
17:32 24.9 °F /  -3.9 °C 13.4 °F /  -10.3 °C 1012.8 in /  34293.4 hPa ENE 14.8 mph /  23.8 km/h 14.8 mph /  23.8 km/h 49 % 0.0 in /  0 mm
17:37 24.8 °F /  -4 °C 13.3 °F /  -10.4 °C 1012.8 in /  34293.4 hPa East 13.0 mph /  20.9 km/h 13.0 mph /  20.9 km/h 49 % 0.0 in /  0 mm
17:42 24.9 °F /  -3.9 °C 13.4 °F /  -10.3 °C 1012.8 in /  34293.4 hPa NNE 12.2 mph /  19.6 km/h 12.2 mph /  19.6 km/h 49 % 0.0 in /  0 mm
17:47 24.9 °F /  -3.9 °C 12.8 °F /  -10.7 °C 1012.8 in /  34293.4 hPa NE 11.1 mph /  17.9 km/h 11.1 mph /  17.9 km/h 47 % 0.0 in /  0 mm
17:52 25.1 °F /  -3.8 °C 12.3 °F /  -10.9 °C 1012.8 in /  34293.4 hPa ESE 16.7 mph /  26.9 km/h 16.7 mph /  26.9 km/h 45 % 0.0 in /  0 mm
17:57 25.0 °F /  -3.9 °C 12.6 °F /  -10.8 °C 1012.8 in /  34293.4 hPa ENE 11.1 mph /  17.9 km/h 11.1 mph /  17.9 km/h 46 % 0.0 in /  0 mm
18:02 25.2 °F /  -3.8 °C 12.8 °F /  -10.7 °C 1012.8 in /  34293.4 hPa SE 10.0 mph /  16.1 km/h 10.0 mph /  16.1 km/h 46 % 0.0 in /  0 mm
18:07 25.2 °F /  -3.8 °C 12.8 °F /  -10.7 °C 1013.8 in /  34327.3 hPa North 14.8 mph /  23.8 km/h 14.8 mph /  23.8 km/h 46 % 0.0 in /  0 mm
18:12 25.2 °F /  -3.8 °C 13.1 °F /  -10.5 °C 1013.8 in /  34327.3 hPa SE 9.3 mph /  15 km/h 9.3 mph /  15 km/h 47 % 0.0 in /  0 mm
18:17 25.2 °F /  -3.8 °C 13.1 °F /  -10.5 °C 1013.8 in /  34327.3 hPa ESE 11.1 mph /  17.9 km/h 11.1 mph /  17.9 km/h 47 % 0.0 in /  0 mm
18:22 25.0 °F /  -3.9 °C 12.9 °F /  -10.6 °C 1013.8 in /  34327.3 hPa NE 9.3 mph /  15 km/h 9.3 mph /  15 km/h 47 % 0.0 in /  0 mm
18:27 25.0 °F /  -3.9 °C 12.9 °F /  -10.6 °C 1013.8 in /  34327.3 hPa North 9.3 mph /  15 km/h 9.3 mph /  15 km/h 47 % 0.0 in /  0 mm
18:37 25.0 °F /  -3.9 °C 12.9 °F /  -10.6 °C 1013.8 in /  34327.3 hPa ENE 6.1 mph /  9.8 km/h 6.1 mph /  9.8 km/h 47 % 0.0 in /  0 mm
18:42 25.0 °F /  -3.9 °C 12.9 °F /  -10.6 °C 1013.8 in /  34327.3 hPa East 7.4 mph /  11.9 km/h 7.4 mph /  11.9 km/h 47 % 0.0 in /  0 mm
18:47 24.8 °F /  -4 °C 13.1 °F /  -10.5 °C 1013.8 in /  34327.3 hPa East 11.1 mph /  17.9 km/h 11.1 mph /  17.9 km/h 48 % 0.0 in /  0 mm
18:52 24.9 °F /  -3.9 °C 13.1 °F /  -10.5 °C 1013.8 in /  34327.3 hPa ESE 9.3 mph /  15 km/h 9.3 mph /  15 km/h 48 % 0.0 in /  0 mm
18:57 24.8 °F /  -4 °C 13.1 °F /  -10.5 °C 1013.8 in /  34327.3 hPa East 9.3 mph /  15 km/h 9.3 mph /  15 km/h 48 % 0.0 in /  0 mm
19:02 24.5 °F /  -4.2 °C 12.8 °F /  -10.7 °C 1013.8 in /  34327.3 hPa East 9.3 mph /  15 km/h 9.3 mph /  15 km/h 48 % 0.0 in /  0 mm
19:07 24.4 °F /  -4.2 °C 12.7 °F /  -10.7 °C 1013.8 in /  34327.3 hPa ENE 9.3 mph /  15 km/h 9.3 mph /  15 km/h 48 % 0.0 in /  0 mm
19:12 24.2 °F /  -4.3 °C 13.1 °F /  -10.5 °C 1013.8 in /  34327.3 hPa ESE 12.2 mph /  19.6 km/h 12.2 mph /  19.6 km/h 50 % 0.0 in /  0 mm
19:17 23.8 °F /  -4.6 °C 13.1 °F /  -10.5 °C 1013.8 in /  34327.3 hPa ESE 16.7 mph /  26.9 km/h 16.7 mph /  26.9 km/h 51 % 0.0 in /  0 mm
19:20 17.4 °F /  -8.1 °C 13.5 °F /  -10.3 °C 1014.8 in /  34361.1 hPa NE 4.8 mph /  7.7 km/h 6.4 mph /  10.3 km/h 78 % 0.0 in /  0 mm
19:22 23.7 °F /  -4.6 °C 12.9 °F /  -10.6 °C 1012.8 in /  34293.4 hPa NW 10.0 mph /  16.1 km/h 10.0 mph /  16.1 km/h 51 % 0.0 in /  0 mm
19:27 23.5 °F /  -4.7 °C 13.1 °F /  -10.5 °C 1012.8 in /  34293.4 hPa ESE 9.3 mph /  15 km/h 10.8 mph /  17.4 km/h 52 % 0.0 in /  0 mm
19:30 17.3 °F /  -8.2 °C 13.4 °F /  -10.3 °C 1014.8 in /  34361.1 hPa NE 4.8 mph /  7.7 km/h 6.4 mph /  10.3 km/h 78 % 0.0 in /  0 mm
19:32 23.3 °F /  -4.8 °C 13.2 °F /  -10.4 °C 1012.8 in /  34293.4 hPa ENE 11.1 mph /  17.9 km/h 11.1 mph /  17.9 km/h 53 % 0.0 in /  0 mm
19:37 23.1 °F /  -4.9 °C 13.6 °F /  -10.2 °C 1013.8 in /  34327.3 hPa ENE 10.0 mph /  16.1 km/h 10.0 mph /  16.1 km/h 55 % 0.0 in /  0 mm
19:40 17.3 °F /  -8.2 °C 13.6 °F /  -10.2 °C 1014.8 in /  34361.1 hPa NNE 3.2 mph /  5.1 km/h 4.8 mph /  7.7 km/h 79 % 0.0 in /  0 mm
19:42 23.0 °F /  -5 °C 13.2 °F /  -10.4 °C 1013.8 in /  34327.3 hPa SE 9.3 mph /  15 km/h 9.3 mph /  15 km/h 54 % 0.0 in /  0 mm
19:47 22.9 °F /  -5.1 °C 13.4 °F /  -10.3 °C 1013.8 in /  34327.3 hPa NNE 9.3 mph /  15 km/h 9.3 mph /  15 km/h 55 % 0.0 in /  0 mm
19:50 17.3 °F /  -8.2 °C 13.6 °F /  -10.2 °C 1014.8 in /  34361.1 hPa NE 3.2 mph /  5.1 km/h 4.8 mph /  7.7 km/h 79 % 0.0 in /  0 mm
19:52 22.8 °F /  -5.1 °C 13.6 °F /  -10.2 °C 1013.8 in /  34327.3 hPa NNE 11.1 mph /  17.9 km/h 11.1 mph /  17.9 km/h 56 % 0.0 in /  0 mm
19:57 22.7 °F /  -5.2 °C 13.4 °F /  -10.3 °C 1013.8 in /  34327.3 hPa ENE 7.4 mph /  11.9 km/h 7.4 mph /  11.9 km/h 56 % 0.0 in /  0 mm
20:00 17.3 °F /  -8.2 °C 13.6 °F /  -10.2 °C 1015.8 in /  34395 hPa NE 3.2 mph /  5.1 km/h 4.8 mph /  7.7 km/h 79 % 0.0 in /  0 mm
20:02 22.6 °F /  -5.2 °C 13.4 °F /  -10.3 °C 1013.8 in /  34327.3 hPa ENE 9.3 mph /  15 km/h 9.3 mph /  15 km/h 56 % 0.0 in /  0 mm
20:07 22.5 °F /  -5.3 °C 13.6 °F /  -10.2 °C 1013.8 in /  34327.3 hPa NE 7.2 mph /  11.6 km/h 7.2 mph /  11.6 km/h 57 % 0.0 in /  0 mm
20:10 17.1 °F /  -8.3 °C 13.6 °F /  -10.2 °C 1015.8 in /  34395 hPa NE 4.8 mph /  7.7 km/h 6.4 mph /  10.3 km/h 80 % 0.0 in /  0 mm
20:12 22.5 °F /  -5.3 °C 13.3 °F /  -10.4 °C 1013.8 in /  34327.3 hPa NNE 9.3 mph /  15 km/h 9.3 mph /  15 km/h 56 % 0.0 in /  0 mm
20:17 22.4 °F /  -5.3 °C 13.2 °F /  -10.4 °C 1013.8 in /  34327.3 hPa East 7.4 mph /  11.9 km/h 7.4 mph /  11.9 km/h 56 % 0.0 in /  0 mm
20:20 17.1 °F /  -8.3 °C 13.6 °F /  -10.2 °C 1015.8 in /  34395 hPa NE 4.8 mph /  7.7 km/h 4.8 mph /  7.7 km/h 80 % 0.0 in /  0 mm
20:22 22.3 °F /  -5.4 °C 13.1 °F /  -10.5 °C 1012.8 in /  34293.4 hPa ESE 7.4 mph /  11.9 km/h 7.4 mph /  11.9 km/h 56 % 0.0 in /  0 mm
20:27 22.2 °F /  -5.4 °C 13.0 °F /  -10.6 °C 1012.8 in /  34293.4 hPa ENE 9.3 mph /  15 km/h 9.3 mph /  15 km/h 56 % 0.0 in /  0 mm
20:30 17.1 °F /  -8.3 °C 13.6 °F /  -10.2 °C 1015.8 in /  34395 hPa NE 3.2 mph /  5.1 km/h 6.4 mph /  10.3 km/h 80 % 0.0 in /  0 mm
20:32 22.0 °F /  -5.6 °C 13.1 °F /  -10.5 °C 1012.8 in /  34293.4 hPa NNW 5.6 mph /  9 km/h 5.6 mph /  9 km/h 57 % 0.0 in /  0 mm
20:37 21.8 °F /  -5.7 °C 13.4 °F /  -10.3 °C 1013.8 in /  34327.3 hPa East 9.3 mph /  15 km/h 9.3 mph /  15 km/h 59 % 0.0 in /  0 mm
20:40 17.1 °F /  -8.3 °C 13.6 °F /  -10.2 °C 1015.8 in /  34395 hPa NE 4.8 mph /  7.7 km/h 6.4 mph /  10.3 km/h 80 % 0.0 in /  0 mm
20:42 21.7 °F /  -5.7 °C 13.3 °F /  -10.4 °C 1013.8 in /  34327.3 hPa ENE 5.6 mph /  9 km/h 5.6 mph /  9 km/h 59 % 0.0 in /  0 mm
20:47 21.5 °F /  -5.8 °C 13.4 °F /  -10.3 °C 1013.8 in /  34327.3 hPa NNE 7.4 mph /  11.9 km/h 7.4 mph /  11.9 km/h 60 % 0.0 in /  0 mm
20:50 17.2 °F /  -8.2 °C 13.9 °F /  -10.1 °C 1015.8 in /  34395 hPa NE 4.8 mph /  7.7 km/h 6.4 mph /  10.3 km/h 81 % 0.0 in /  0 mm
20:52 21.3 °F /  -5.9 °C 13.4 °F /  -10.3 °C 1013.8 in /  34327.3 hPa NNE 7.4 mph /  11.9 km/h 7.4 mph /  11.9 km/h 61 % 0.0 in /  0 mm
20:57 21.1 °F /  -6.1 °C 13.3 °F /  -10.4 °C 1013.8 in /  34327.3 hPa NNE 7.4 mph /  11.9 km/h 7.4 mph /  11.9 km/h 61 % 0.0 in /  0 mm
21:00 17.2 °F /  -8.2 °C 13.9 °F /  -10.1 °C 1015.8 in /  34395 hPa NE 4.8 mph /  7.7 km/h 6.4 mph /  10.3 km/h 81 % 0.0 in /  0 mm
21:02 21.0 °F /  -6.1 °C 13.4 °F /  -10.3 °C 1013.8 in /  34327.3 hPa NNE 7.4 mph /  11.9 km/h 7.4 mph /  11.9 km/h 62 % 0.0 in /  0 mm
21:07 20.7 °F /  -6.3 °C 13.4 °F /  -10.3 °C 1012.8 in /  34293.4 hPa ESE 5.6 mph /  9 km/h 5.6 mph /  9 km/h 63 % 0.0 in /  0 mm
21:10 17.1 °F /  -8.3 °C 13.8 °F /  -10.1 °C 1015.8 in /  34395 hPa NE 4.8 mph /  7.7 km/h 6.4 mph /  10.3 km/h 81 % 0.0 in /  0 mm
21:12 20.6 °F /  -6.3 °C 13.3 °F /  -10.4 °C 1012.8 in /  34293.4 hPa ENE 7.4 mph /  11.9 km/h 7.4 mph /  11.9 km/h 63 % 0.0 in /  0 mm
21:17 20.4 °F /  -6.4 °C 13.3 °F /  -10.4 °C 1012.8 in /  34293.4 hPa NNE 7.4 mph /  11.9 km/h 7.4 mph /  11.9 km/h 64 % 0.0 in /  0 mm
21:20 17.2 °F /  -8.2 °C 13.9 °F /  -10.1 °C 1015.8 in /  34395 hPa NE 8.0 mph /  12.9 km/h 9.7 mph /  15.6 km/h 81 % 0.0 in /  0 mm
21:22 20.2 °F /  -6.6 °C 13.2 °F /  -10.4 °C 1013.8 in /  34327.3 hPa NE 9.7 mph /  15.6 km/h 9.7 mph /  15.6 km/h 64 % 0.0 in /  0 mm
21:27 20.1 °F /  -6.6 °C 13.3 °F /  -10.4 °C 1013.8 in /  34327.3 hPa NNE 5.6 mph /  9 km/h 5.6 mph /  9 km/h 65 % 0.0 in /  0 mm
21:30 17.3 °F /  -8.2 °C 14.2 °F /  -9.9 °C 1015.8 in /  34395 hPa ENE 4.8 mph /  7.7 km/h 8.0 mph /  12.9 km/h 82 % 0.0 in /  0 mm
21:32 19.9 °F /  -6.7 °C 13.6 °F /  -10.2 °C 1013.8 in /  34327.3 hPa ENE 6.1 mph /  9.8 km/h 6.1 mph /  9.8 km/h 67 % 0.0 in /  0 mm
21:37 19.8 °F /  -6.8 °C 13.5 °F /  -10.3 °C 1012.8 in /  34293.4 hPa ENE 5.6 mph /  9 km/h 5.6 mph /  9 km/h 67 % 0.0 in /  0 mm
21:40 17.3 °F /  -8.2 °C 14.2 °F /  -9.9 °C 1015.8 in /  34395 hPa ENE 4.8 mph /  7.7 km/h 6.4 mph /  10.3 km/h 82 % 0.0 in /  0 mm
21:42 19.7 °F /  -6.8 °C 13.4 °F /  -10.3 °C 1012.8 in /  34293.4 hPa NNE 8.7 mph /  14 km/h 8.7 mph /  14 km/h 67 % 0.0 in /  0 mm
21:47 19.5 °F /  -6.9 °C 13.4 °F /  -10.3 °C 1012.8 in /  34293.4 hPa ENE 7.4 mph /  11.9 km/h 7.4 mph /  11.9 km/h 68 % 0.0 in /  0 mm
21:50 17.3 °F /  -8.2 °C 14.2 °F /  -9.9 °C 1015.8 in /  34395 hPa ENE 3.2 mph /  5.1 km/h 8.0 mph /  12.9 km/h 82 % 0.0 in /  0 mm
21:52 19.4 °F /  -7 °C 13.3 °F /  -10.4 °C 1013.8 in /  34327.3 hPa ENE 3.7 mph /  6 km/h 3.9 mph /  6.3 km/h 68 % 0.0 in /  0 mm
21:57 19.3 °F /  -7.1 °C 13.2 °F /  -10.4 °C 1013.8 in /  34327.3 hPa NNE 4.7 mph /  7.6 km/h 4.7 mph /  7.6 km/h 68 % 0.0 in /  0 mm
22:00 17.4 °F /  -8.1 °C 14.3 °F /  -9.8 °C 1015.8 in /  34395 hPa ENE 4.8 mph /  7.7 km/h 11.3 mph /  18.2 km/h 82 % 0.0 in /  0 mm
22:02 19.2 °F /  -7.1 °C 13.6 °F /  -10.2 °C 1013.8 in /  34327.3 hPa NNE 7.4 mph /  11.9 km/h 7.4 mph /  11.9 km/h 70 % 0.0 in /  0 mm
22:07 19.0 °F /  -7.2 °C 13.4 °F /  -10.3 °C 1014.8 in /  34361.1 hPa NE 7.4 mph /  11.9 km/h 7.4 mph /  11.9 km/h 70 % 0.0 in /  0 mm
22:10 17.3 °F /  -8.2 °C 14.2 °F /  -9.9 °C 1015.8 in /  34395 hPa ENE 4.8 mph /  7.7 km/h 8.0 mph /  12.9 km/h 82 % 0.0 in /  0 mm
22:12 18.9 °F /  -7.3 °C 13.5 °F /  -10.3 °C 1014.8 in /  34361.1 hPa ENE 5.6 mph /  9 km/h 5.6 mph /  9 km/h 71 % 0.0 in /  0 mm
22:17 18.8 °F /  -7.3 °C 13.7 °F /  -10.2 °C 1014.8 in /  34361.1 hPa ENE 6.4 mph /  10.3 km/h 6.4 mph /  10.3 km/h 72 % 0.0 in /  0 mm
22:20 17.4 °F /  -8.1 °C 14.3 °F /  -9.8 °C 1015.8 in /  34395 hPa ENE 4.8 mph /  7.7 km/h 6.4 mph /  10.3 km/h 82 % 0.0 in /  0 mm
22:22 18.8 °F /  -7.3 °C 13.7 °F /  -10.2 °C 1014.8 in /  34361.1 hPa NNE 5.6 mph /  9 km/h 5.6 mph /  9 km/h 72 % 0.0 in /  0 mm
22:27 18.7 °F /  -7.4 °C 13.8 °F /  -10.1 °C 1014.8 in /  34361.1 hPa ENE 5.8 mph /  9.3 km/h 5.8 mph /  9.3 km/h 73 % 0.0 in /  0 mm
22:30 17.4 °F /  -8.1 °C 14.3 °F /  -9.8 °C 1015.8 in /  34395 hPa ENE 4.8 mph /  7.7 km/h 8.0 mph /  12.9 km/h 82 % 0.0 in /  0 mm
22:32 18.7 °F /  -7.4 °C 13.8 °F /  -10.1 °C 1014.8 in /  34361.1 hPa NNE 7.4 mph /  11.9 km/h 7.4 mph /  11.9 km/h 73 % 0.0 in /  0 mm
22:37 18.6 °F /  -7.4 °C 13.7 °F /  -10.2 °C 1014.8 in /  34361.1 hPa NNE 5.6 mph /  9 km/h 5.6 mph /  9 km/h 73 % 0.0 in /  0 mm
22:40 17.4 °F /  -8.1 °C 14.3 °F /  -9.8 °C 1015.8 in /  34395 hPa East 4.8 mph /  7.7 km/h 9.7 mph /  15.6 km/h 82 % 0.0 in /  0 mm
22:42 18.6 °F /  -7.4 °C 13.7 °F /  -10.2 °C 1014.8 in /  34361.1 hPa NE 3.7 mph /  6 km/h 3.7 mph /  6 km/h 73 % 0.0 in /  0 mm
22:47 18.5 °F /  -7.5 °C 13.8 °F /  -10.1 °C 1014.8 in /  34361.1 hPa ESE 3.9 mph /  6.3 km/h 3.9 mph /  6.3 km/h 74 % 0.0 in /  0 mm
22:50 17.4 °F /  -8.1 °C 14.3 °F /  -9.8 °C 1015.8 in /  34395 hPa East 3.2 mph /  5.1 km/h 9.7 mph /  15.6 km/h 82 % 0.0 in /  0 mm
22:52 18.5 °F /  -7.5 °C 13.8 °F /  -10.1 °C 1014.8 in /  34361.1 hPa NNE 3.7 mph /  6 km/h 3.9 mph /  6.3 km/h 74 % 0.0 in /  0 mm
22:57 18.5 °F /  -7.5 °C 13.8 °F /  -10.1 °C 1014.8 in /  34361.1 hPa NNE 4.7 mph /  7.6 km/h 4.7 mph /  7.6 km/h 74 % 0.0 in /  0 mm
23:00 17.3 °F /  -8.2 °C 14.2 °F /  -9.9 °C 1015.8 in /  34395 hPa East 4.8 mph /  7.7 km/h 9.7 mph /  15.6 km/h 82 % 0.0 in /  0 mm
23:02 18.5 °F /  -7.5 °C 13.8 °F /  -10.1 °C 1014.8 in /  34361.1 hPa NE 5.6 mph /  9 km/h 5.6 mph /  9 km/h 74 % 0.0 in /  0 mm
23:07 18.5 °F /  -7.5 °C 13.8 °F /  -10.1 °C 1014.8 in /  34361.1 hPa NE 4.7 mph /  7.6 km/h 4.7 mph /  7.6 km/h 74 % 0.0 in /  0 mm
23:10 17.4 °F /  -8.1 °C 14.3 °F /  -9.8 °C 1015.8 in /  34395 hPa East 4.8 mph /  7.7 km/h 6.4 mph /  10.3 km/h 82 % 0.0 in /  0 mm
23:12 18.4 °F /  -7.6 °C 13.7 °F /  -10.2 °C 1014.8 in /  34361.1 hPa NNE 5.6 mph /  9 km/h 5.6 mph /  9 km/h 74 % 0.0 in /  0 mm
23:17 18.4 °F /  -7.6 °C 13.7 °F /  -10.2 °C 1014.8 in /  34361.1 hPa ENE 5.6 mph /  9 km/h 5.6 mph /  9 km/h 74 % 0.0 in /  0 mm
23:22 18.3 °F /  -7.6 °C 13.8 °F /  -10.1 °C 1014.8 in /  34361.1 hPa NNE 7.4 mph /  11.9 km/h 7.4 mph /  11.9 km/h 75 % 0.0 in /  0 mm
23:27 18.2 °F /  -7.7 °C 13.7 °F /  -10.2 °C 1014.8 in /  34361.1 hPa ENE 5.6 mph /  9 km/h 5.6 mph /  9 km/h 75 % 0.0 in /  0 mm
23:30 17.3 °F /  -8.2 °C 14.2 °F /  -9.9 °C 1015.8 in /  34395 hPa ENE 4.8 mph /  7.7 km/h 6.4 mph /  10.3 km/h 82 % 0.0 in /  0 mm
23:32 18.1 °F /  -7.7 °C 13.6 °F /  -10.2 °C 1014.8 in /  34361.1 hPa NE 5.8 mph /  9.3 km/h 5.8 mph /  9.3 km/h 75 % 0.0 in /  0 mm
23:37 17.9 °F /  -7.8 °C 13.6 °F /  -10.2 °C 1014.8 in /  34361.1 hPa NNE 5.6 mph /  9 km/h 5.6 mph /  9 km/h 76 % 0.0 in /  0 mm
23:40 17.4 °F /  -8.1 °C 14.1 °F /  -9.9 °C 1015.8 in /  34395 hPa ENE 3.2 mph /  5.1 km/h 8.0 mph /  12.9 km/h 81 % 0.0 in /  0 mm
23:42 17.8 °F /  -7.9 °C 13.5 °F /  -10.3 °C 1014.8 in /  34361.1 hPa East 3.7 mph /  6 km/h 3.7 mph /  6 km/h 76 % 0.0 in /  0 mm
23:47 17.8 °F /  -7.9 °C 13.5 °F /  -10.3 °C 1014.8 in /  34361.1 hPa NNE 7.4 mph /  11.9 km/h 7.4 mph /  11.9 km/h 76 % 0.0 in /  0 mm
23:50 17.4 °F /  -8.1 °C 14.1 °F /  -9.9 °C 1015.8 in /  34395 hPa ENE 4.8 mph /  7.7 km/h 9.7 mph /  15.6 km/h 81 % 0.0 in /  0 mm
23:52 17.7 °F /  -7.9 °C 13.6 °F /  -10.2 °C 1014.8 in /  34361.1 hPa ENE 3.7 mph /  6 km/h 3.7 mph /  6 km/h 77 % 0.0 in /  0 mm
23:57 17.6 °F /  -8 °C 13.5 °F /  -10.3 °C 1014.8 in /  34361.1 hPa NNE 7.4 mph /  11.9 km/h 7.4 mph /  11.9 km/h 77 % 0.0 in /  0 mm
Meteo Sesrovires
Elogis d' Weather Underground - 1.75 mb

Guio original per  Jim McMurry - jmcmurry@mwt.net Adaptat per a la plantilla per  Wim van der Kuil - Leuven-Template.eu

Trobareu la nostra informacio del temps tambe a:

Weather Underground

AWEKAS